Station Historical Data
Daily Summary for November 26, 2017 Units:  Metric    English   Both
« Previous Day
Next Day »
Daily Weekly Monthly Yearly Custom
  High: Low: Average:
Temperature: 15.8 °C 4.6 °C 9.3 °C
Dew Point: 5 °C -5.3 °C -0.1 °C
Humidity: 83% 25% 56%
Wind Speed: 18.5km/h 0km/h 3.1km/h
Wind Gust: 18.5km/h - -
Wind- - SSW
Pressure: 1023.9 hPa 1019.2 hPa -
Precipitation: 0 mm    
Historical Graphs
 
 
Tabular Data for November 26, 2017
Time Temperature Dew Point Pressure Wind Wind Speed Wind Gust Humidity Rainfall Rate (Hourly) Conditions
00:01 8.1 °C 5 °C 1019.5 hPa WNW 1.9 km/h   81% 0 mm CLR
00:06 8.1 °C 5 °C 1019.5 hPa WNW 1.9 km/h   81% 0 mm CLR
00:12 8.1 °C 5 °C 1019.5 hPa West 1.9 km/h   81% 0 mm CLR
00:17 8.1 °C 4.8 °C 1019.5 hPa Calm     80% 0 mm CLR
00:22 8 °C 4.9 °C 1019.5 hPa Calm     81% 0 mm CLR
00:27 8.1 °C 4.8 °C 1019.5 hPa Calm   0.2 km/h 80% 0 mm CLR
00:32 8.1 °C 4.8 °C 1019.5 hPa WNW 1.9 km/h   80% 0 mm CLR
00:37 8.1 °C 4.9 °C 1019.5 hPa West 1.9 km/h   80% 0 mm CLR
00:42 8.1 °C 4.9 °C 1019.2 hPa West 1.9 km/h   80% 0 mm CLR
00:47 8.1 °C 4.9 °C 1019.2 hPa West 1.9 km/h 1.9 km/h 80% 0 mm CLR
00:52 8.1 °C 4.7 °C 1019.2 hPa SW 1.9 km/h   79% 0 mm CLR
00:57 8.1 °C 4.6 °C 1019.2 hPa SSE 1.9 km/h   79% 0 mm CLR
01:02 8 °C 4.8 °C 1019.2 hPa Calm     80% 0 mm CLR
01:07 8 °C 4.8 °C 1019.2 hPa Calm     80% 0 mm CLR
01:12 7.9 °C 4.7 °C 1019.2 hPa Calm     80% 0 mm CLR
01:17 7.8 °C 4.6 °C 1019.2 hPa Calm     80% 0 mm CLR
01:23 7.7 °C 4.5 °C 1019.2 hPa Calm     80% 0 mm CLR
01:28 7.6 °C 4.5 °C 1019.2 hPa Calm     81% 0 mm CLR
01:33 7.5 °C 4.4 °C 1019.5 hPa SE 1.9 km/h   81% 0 mm CLR
01:38 7.4 °C 4.3 °C 1019.5 hPa NNW 1.9 km/h   81% 0 mm CLR
01:43 7.3 °C 4.3 °C 1019.5 hPa NNW 1.9 km/h   81% 0 mm CLR
01:48 7.2 °C 4.2 °C 1019.5 hPa Calm     81% 0 mm CLR
01:53 7.2 °C 4.1 °C 1019.5 hPa Calm     81% 0 mm CLR
01:58 7.1 °C 4.2 °C 1019.5 hPa Calm     82% 0 mm CLR
02:03 7.1 °C 4.2 °C 1019.5 hPa NNW 1.9 km/h   82% 0 mm CLR
02:09 7 °C 4.1 °C 1019.5 hPa NNW 1.9 km/h   82% 0 mm CLR
02:14 7 °C 4.1 °C 1019.5 hPa Calm     82% 0 mm CLR
02:19 6.9 °C 4.1 °C 1019.5 hPa Calm     82% 0 mm CLR
02:24 6.9 °C 4 °C 1019.5 hPa Calm     82% 0 mm CLR
02:29 6.8 °C 4 °C 1019.5 hPa WNW 1.9 km/h   82% 0 mm CLR
02:34 6.7 °C 3.9 °C 1019.9 hPa WNW 1.9 km/h   82% 0 mm CLR
02:39 6.7 °C 3.8 °C 1019.9 hPa Calm     82% 0 mm CLR
02:44 6.6 °C 3.7 °C 1019.9 hPa Calm     82% 0 mm CLR
02:49 6.5 °C 3.8 °C 1019.9 hPa Calm     83% 0 mm CLR
02:54 6.4 °C 3.7 °C 1019.9 hPa Calm     83% 0 mm CLR
02:59 6.3 °C 3.7 °C 1019.9 hPa Calm     83% 0 mm CLR
03:04 6.2 °C 3.6 °C 1019.9 hPa Calm     83% 0 mm CLR
03:10 6.2 °C 3.6 °C 1019.9 hPa Calm     83% 0 mm CLR
03:15 6.2 °C 3.6 °C 1019.9 hPa Calm     83% 0 mm CLR
03:20 6.2 °C 3.4 °C 1020.2 hPa NW 1.9 km/h   82% 0 mm CLR
03:25 6.4 °C 3.4 °C 1020.2 hPa SW 3.7 km/h   81% 0 mm CLR
03:30 6.4 °C 3.2 °C 1020.2 hPa SSW 3.7 km/h   80% 0 mm CLR
03:35 6.5 °C 3.1 °C 1020.2 hPa SW 1.9 km/h   79% 0 mm CLR
03:41 6.6 °C 3.1 °C 1020.2 hPa SW 1.9 km/h   78% 0 mm CLR
03:46 6.6 °C 2.9 °C 1020.2 hPa SW 1.9 km/h   77% 0 mm CLR
03:51 6.5 °C 2.9 °C 1020.2 hPa SW 1.9 km/h   78% 0 mm CLR
03:56 6.4 °C 2.8 °C 1020.2 hPa WSW 1.9 km/h   78% 0 mm CLR
03:58 6.4 °C 2.7 °C 1020.2 hPa SW 1.9 km/h   77% 0 mm CLR
04:03 6.4 °C 2.7 °C 1020.2 hPa ESE 1.9 km/h   77% 0 mm CLR
04:08 6.3 °C 2.6 °C 1020.2 hPa Calm     77% 0 mm CLR
04:18 6.5 °C 2.4 °C 1020.5 hPa NW 3.7 km/h 3.7 km/h 75% 0 mm CLR
04:23 6.6 °C 2.4 °C 1020.5 hPa ENE 3.7 km/h   75% 0 mm CLR
04:28 6.6 °C 2.4 °C 1020.5 hPa NNW 3.7 km/h   75% 0 mm CLR
04:33 6.5 °C 2.2 °C 1020.5 hPa NW 1.9 km/h   74% 0 mm CLR
04:38 6.5 °C 2.2 °C 1020.5 hPa WNW 1.9 km/h 1.9 km/h 74% 0 mm CLR
04:43 6.5 °C 2 °C 1020.5 hPa West 1.9 km/h 1.9 km/h 73% 0 mm CLR
04:49 6.6 °C 2.1 °C 1020.5 hPa SW 1.9 km/h   73% 0 mm CLR
04:54 6.6 °C 2.1 °C 1020.9 hPa SE 1.9 km/h 1.9 km/h 73% 0 mm CLR
04:59 6.6 °C 1.9 °C 1020.9 hPa SSE 1.9 km/h 1.9 km/h 72% 0 mm CLR
05:04 6.5 °C 1.8 °C 1020.9 hPa North 1.9 km/h 1.9 km/h 72% 0 mm CLR
05:09 6.5 °C 1.8 °C 1020.9 hPa NE 3.7 km/h   72% 0 mm CLR
05:14 6.6 °C 1.9 °C 1020.9 hPa East 3.7 km/h   72% 0 mm CLR
05:24 6.5 °C 1.8 °C 1020.9 hPa SSE 1.9 km/h   72% 0 mm CLR
05:29 6.4 °C 1.8 °C 1021.2 hPa ESE 1.9 km/h   72% 0 mm CLR
05:34 6.4 °C 1.7 °C 1021.2 hPa East 1.9 km/h 1.9 km/h 72% 0 mm CLR
05:39 6.3 °C 1.6 °C 1021.2 hPa NNW 1.9 km/h   72% 0 mm CLR
05:44 6.2 °C 1.7 °C 1021.2 hPa NW 1.9 km/h   73% 0 mm CLR
05:49 6 °C 1.5 °C 1021.2 hPa WNW 1.9 km/h 1.9 km/h 73% 0 mm CLR
05:55 5.9 °C 1.4 °C 1021.2 hPa Calm   1.6 km/h 73% 0 mm CLR
06:00 5.7 °C 1.3 °C 1021.6 hPa WSW 1.9 km/h   73% 0 mm CLR
06:05 5.6 °C 1.3 °C 1021.6 hPa Calm     74% 0 mm CLR
06:10 5.4 °C 1.3 °C 1021.6 hPa Calm     75% 0 mm CLR
06:15 5.3 °C 1.4 °C 1021.6 hPa WSW 1.9 km/h   76% 0 mm CLR
06:20 5.2 °C 1.3 °C 1021.6 hPa WSW 1.9 km/h   76% 0 mm CLR
06:25 5.1 °C 1.6 °C 1021.6 hPa Calm     78% 0 mm CLR
06:30 4.9 °C 1.2 °C 1021.6 hPa South 1.9 km/h   77% 0 mm CLR
06:35 4.9 °C 1 °C 1021.6 hPa East 1.9 km/h   76% 0 mm CLR
06:40 4.9 °C 1 °C 1021.9 hPa East 1.9 km/h   76% 0 mm CLR
06:45 4.9 °C 1.1 °C 1021.9 hPa Calm     76% 0 mm CLR
06:50 4.9 °C 1.1 °C 1021.9 hPa Calm     76% 0 mm CLR
06:55 5 °C 1.1 °C 1021.9 hPa Calm     76% 0 mm CLR
07:01 5.1 °C 1 °C 1022.2 hPa Calm     75% 0 mm CLR
07:06 5.1 °C 0.8 °C 1022.2 hPa East 1.9 km/h   74% 0 mm CLR
07:11 5 °C 0.9 °C 1022.2 hPa East 1.9 km/h   75% 0 mm CLR
07:16 4.9 °C 1 °C 1022.2 hPa East 1.9 km/h   76% 0 mm CLR
07:21 4.9 °C 0.8 °C 1022.2 hPa ENE 1.9 km/h   75% 0 mm CLR
07:26 4.9 °C 1 °C 1022.6 hPa ENE 1.9 km/h   76% 0 mm CLR
07:31 4.8 °C 0.9 °C 1022.6 hPa ENE 1.9 km/h   76% 0 mm CLR
07:36 4.8 °C 0.9 °C 1022.6 hPa NNE 1.9 km/h   76% 0 mm CLR
07:41 4.7 °C 1 °C 1022.6 hPa NNW 1.9 km/h   77% 0 mm CLR
07:46 4.6 °C 0.9 °C 1022.9 hPa Calm     77% 0 mm CLR
07:51 4.6 °C 1.1 °C 1022.6 hPa NNW 1.9 km/h   78% 0 mm CLR
07:57 4.6 °C 1.1 °C 1022.9 hPa NNW 1.9 km/h 1.9 km/h 78% 0 mm CLR
08:02 4.8 °C 0.9 °C 1022.9 hPa NW 1.9 km/h   76% 0 mm CLR
08:07 4.9 °C 0.9 °C 1022.9 hPa WNW 1.9 km/h   75% 0 mm CLR
08:12 5.2 °C 0.9 °C 1022.9 hPa WNW 1.9 km/h   74% 0 mm CLR
08:17 5.4 °C 1.2 °C 1023.2 hPa NW 1.9 km/h   74% 0 mm CLR
08:22 5.7 °C 1.4 °C 1023.2 hPa NW 1.9 km/h   74% 0 mm CLR
08:27 5.8 °C 1.3 °C 1023.2 hPa Calm     73% 0 mm CLR
08:32 6 °C 1.5 °C 1023.2 hPa Calm     73% 0 mm CLR
08:37 6.2 °C 1.3 °C 1023.2 hPa WNW 1.9 km/h   71% 0 mm CLR
08:42 6.6 °C 1.7 °C 1023.2 hPa WSW 1.9 km/h   71% 0 mm CLR
08:48 6.9 °C 1.6 °C 1023.2 hPa Calm     69% 0 mm CLR
08:53 7.3 °C 1.8 °C 1023.6 hPa WNW 1.9 km/h 1.9 km/h 68% 0 mm CLR
08:58 7.7 °C 1.9 °C 1023.6 hPa WNW 1.9 km/h   67% 0 mm CLR
09:03 8 °C 1.8 °C 1023.6 hPa WNW 1.9 km/h 1.9 km/h 65% 0 mm CLR
09:08 8.1 °C 1.9 °C 1023.6 hPa SE 1.9 km/h   65% 0 mm CLR
09:13 8.2 °C 2 °C 1023.6 hPa SW 1.9 km/h   65% 0 mm CLR
09:18 8.4 °C 1.7 °C 1023.6 hPa NW 1.9 km/h   63% 0 mm CLR
09:23 8.6 °C 2.2 °C 1023.6 hPa NNE 1.9 km/h   64% 0 mm CLR
09:28 8.8 °C 1.9 °C 1023.9 hPa NNE 1.9 km/h   62% 0 mm CLR
09:34 9.1 °C 1.5 °C 1023.9 hPa NW 5.6 km/h 5.6 km/h 59% 0 mm CLR
09:39 9.3 °C 0.7 °C 1023.9 hPa SSE 7.4 km/h 7.4 km/h 55% 0 mm CLR
09:44 9.7 °C 0.6 °C 1023.9 hPa SW 9.3 km/h 9.3 km/h 53% 0 mm CLR
09:49 10.1 °C 0.1 °C 1023.9 hPa ESE 9.3 km/h   50% 0 mm CLR
09:54 10.3 °C 0 °C 1023.9 hPa SE 9.3 km/h 9.3 km/h 49% 0 mm CLR
09:59 10.6 °C -0.6 °C 1023.9 hPa ENE 7.4 km/h 7.4 km/h 46% 0 mm CLR
10:04 10.7 °C -0.4 °C 1023.9 hPa ESE 7.4 km/h 7.4 km/h 46% 0 mm CLR
10:09 11 °C 0.1 °C 1023.9 hPa ESE 7.4 km/h   47% 0 mm CLR
10:19 11.8 °C -0.7 °C 1023.9 hPa ESE 7.4 km/h 7.4 km/h 42% 0 mm CLR
10:24 12.2 °C -1.1 °C 1023.9 hPa East 7.4 km/h 7.4 km/h 40% 0 mm CLR
10:30 12.5 °C -0.4 °C 1023.9 hPa South 7.4 km/h   41% 0 mm CLR
10:35 12.7 °C -0.9 °C 1023.9 hPa Calm   3.2 km/h 39% 0 mm CLR
10:40 12.8 °C -1.2 °C 1023.9 hPa SE 3.2 km/h 9.7 km/h 38% 0 mm CLR
10:45 12.8 °C -1.6 °C 1023.9 hPa SSE 9.3 km/h 9.3 km/h 37% 0 mm CLR
10:50 12.8 °C -2.3 °C 1023.9 hPa SE 9.3 km/h 9.3 km/h 35% 0 mm CLR
10:55 12.7 °C -2.4 °C 1023.9 hPa SE 9.3 km/h 9.3 km/h 35% 0 mm CLR
11:00 12.8 °C -2.7 °C 1023.9 hPa SE 9.3 km/h 9.3 km/h 34% 0 mm CLR
11:05 13.1 °C -2.1 °C 1023.9 hPa SE 7.4 km/h 7.4 km/h 35% 0 mm CLR
11:10 13.4 °C -1.3 °C 1023.6 hPa South 7.4 km/h 7.4 km/h 36% 0 mm CLR
11:15 13.4 °C -3.4 °C 1023.6 hPa ESE 7.4 km/h 7.4 km/h 31% 0 mm CLR
11:20 13.4 °C -3.8 °C 1023.6 hPa SE 11.1 km/h 11.1 km/h 30% 0 mm CLR
11:25 13.6 °C -2.4 °C 1023.6 hPa SE 11.1 km/h 11.1 km/h 33% 0 mm CLR
11:30 13.8 °C -3.9 °C 1023.6 hPa SSE 11.1 km/h 11.1 km/h 29% 0 mm CLR
11:35 13.7 °C -4.5 °C 1023.6 hPa South 18.5 km/h 18.5 km/h 28% 0 mm CLR
11:40 13.9 °C -5.3 °C 1023.2 hPa SSE 18.5 km/h 18.5 km/h 26% 0 mm CLR
11:46 13.9 °C -5.3 °C 1023.2 hPa SE 9.3 km/h 9.3 km/h 26% 0 mm CLR
11:51 13.9 °C -5.3 °C 1023.2 hPa ESE 9.3 km/h 9.3 km/h 26% 0 mm CLR
12:01 14.4 °C -3.4 °C 1023.2 hPa SSE 7.4 km/h 7.4 km/h 29% 0 mm FEW
12:06 14.5 °C -2.4 °C 1023.2 hPa SW 7.4 km/h 7.4 km/h 31% 0 mm FEW
12:11 14.7 °C -3.2 °C 1022.9 hPa WSW 7.4 km/h 7.4 km/h 29% 0 mm FEW
12:16 14.7 °C -1.9 °C 1022.9 hPa South 7.4 km/h 7.4 km/h 32% 0 mm FEW
12:21 14.8 °C -2.2 °C 1022.9 hPa SW 7.4 km/h   31% 0 mm FEW
12:26 14.8 °C -1.7 °C 1022.9 hPa SW 7.4 km/h 7.4 km/h 32% 0 mm FEW
12:31 14.9 °C -3 °C 1022.9 hPa ENE 7.4 km/h 7.4 km/h 29% 0 mm FEW
12:36 14.9 °C -2.6 °C 1022.6 hPa SW 7.4 km/h 7.4 km/h 30% 0 mm FEW
12:41 15 °C -2.4 °C 1022.6 hPa SW 7.4 km/h 7.4 km/h 30% 0 mm FEW
12:47 15.2 °C -1.4 °C 1022.6 hPa South 7.4 km/h 7.4 km/h 32% 0 mm FEW
12:52 15.2 °C -1 °C 1022.6 hPa SSW 7.4 km/h 7.4 km/h 33% 0 mm FEW
12:57 15.1 °C -2.8 °C 1022.6 hPa SSW 7.4 km/h 7.4 km/h 29% 0 mm FEW
13:02 15.2 °C -2.7 °C 1022.6 hPa WSW 7.4 km/h 7.4 km/h 29% 0 mm FEW
13:07 15.2 °C -2.8 °C 1022.2 hPa ESE 7.4 km/h 7.4 km/h 29% 0 mm FEW
13:12 15.2 °C -2.7 °C 1022.2 hPa ESE 7.4 km/h 7.4 km/h 29% 0 mm FEW
13:18 15.2 °C -1.8 °C 1021.9 hPa SE 9.3 km/h 9.3 km/h 31% 0 mm FEW
13:23 15.3 °C -2.2 °C 1021.9 hPa SSE 9.3 km/h 9.3 km/h 30% 0 mm FEW
13:28 15.4 °C -1.6 °C 1021.9 hPa SSW 5.6 km/h   31% 0 mm FEW
13:33 15.3 °C -1.7 °C 1021.9 hPa West 9.3 km/h   31% 0 mm FEW
13:38 15.3 °C -2.6 °C 1021.9 hPa WSW 9.3 km/h 9.3 km/h 29% 0 mm FEW
13:43 15.2 °C -2.8 °C 1021.6 hPa ESE 9.3 km/h   29% 0 mm FEW
13:53 15.2 °C -2.3 °C 1021.6 hPa SSE 7.4 km/h 7.4 km/h 30% 0 mm FEW
13:58 15.2 °C -1.8 °C 1021.9 hPa ENE 7.4 km/h 7.4 km/h 31% 0 mm FEW
14:03 15.2 °C -2.3 °C 1021.6 hPa SSE 7.4 km/h 7.4 km/h 30% 0 mm FEW
14:08 15.2 °C -1.9 °C 1021.9 hPa WSW 9.3 km/h 9.3 km/h 31% 0 mm FEW
14:14 15.1 °C -2.8 °C 1021.6 hPa West 9.3 km/h 9.3 km/h 29% 0 mm FEW
14:19 15.1 °C -2.9 °C 1021.6 hPa ESE 5.6 km/h 5.6 km/h 29% 0 mm FEW
14:24 15 °C -2.9 °C 1021.6 hPa ESE 9.3 km/h 9.3 km/h 29% 0 mm FEW
14:29 15.2 °C -2.8 °C 1021.6 hPa ESE 9.3 km/h   29% 0 mm FEW
14:34 15.5 °C -2 °C 1021.6 hPa WNW 7.4 km/h   30% 0 mm FEW
14:39 15.8 °C -2.2 °C 1021.6 hPa West 3.7 km/h 3.7 km/h 29% 0 mm FEW
14:44 15.7 °C -3.3 °C 1021.6 hPa SW 7.4 km/h 7.4 km/h 27% 0 mm FEW
14:49 15.6 °C -3.4 °C 1021.6 hPa NNW 7.4 km/h 7.4 km/h 27% 0 mm FEW
14:59 15.7 °C -3.3 °C 1021.6 hPa WNW 9.3 km/h   27% 0 mm FEW
15:04 15.8 °C -3.2 °C 1021.6 hPa NNW 7.4 km/h 7.4 km/h 27% 0 mm FEW
15:10 15.6 °C -4.4 °C 1021.6 hPa South 7.4 km/h 7.4 km/h 25% 0 mm FEW
15:15 15.4 °C -4.6 °C 1021.2 hPa SE 7.4 km/h 7.4 km/h 25% 0 mm FEW
15:20 15.3 °C -4.7 °C 1021.6 hPa SE 7.4 km/h 7.4 km/h 25% 0 mm FEW
15:25 15.2 °C -4.2 °C 1021.6 hPa SSE 7.4 km/h   26% 0 mm FEW
15:30 15.2 °C -3.7 °C 1021.6 hPa South 7.4 km/h 7.4 km/h 27% 0 mm FEW
15:35 15.2 °C -3.2 °C 1021.6 hPa SE 7.4 km/h 7.4 km/h 28% 0 mm FEW
15:40 15.1 °C -4.3 °C 1021.6 hPa ESE 7.4 km/h 7.4 km/h 26% 0 mm FEW
15:46 14.9 °C -3.9 °C 1021.6 hPa SE 5.6 km/h 5.6 km/h 27% 0 mm FEW
15:51 14.8 °C -3.6 °C 1021.6 hPa WSW 7.4 km/h   28% 0 mm FEW
15:56 14.7 °C -3.7 °C 1021.6 hPa WNW 7.4 km/h 7.4 km/h 28% 0 mm FEW
16:01 14.6 °C -3.8 °C 1021.6 hPa WNW 7.4 km/h 7.4 km/h 28% 0 mm FEW
16:06 14.4 °C -2.9 °C 1021.6 hPa SW 3.7 km/h   30% 0 mm FEW
16:11 14.3 °C -3.6 °C 1021.6 hPa WSW 3.7 km/h 3.7 km/h 29% 0 mm FEW
16:16 14.2 °C -3.6 °C 1021.6 hPa WNW 9.3 km/h 9.3 km/h 29% 0 mm FEW
16:21 14.1 °C -2.4 °C 1021.2 hPa SSE 9.3 km/h 9.3 km/h 32% 0 mm FEW
16:26 13.9 °C -3 °C 1021.2 hPa WNW 3.7 km/h 3.7 km/h 31% 0 mm FEW
16:31 13.8 °C -3.1 °C 1021.2 hPa NNW 1.9 km/h   31% 0 mm FEW
16:36 13.7 °C -3.6 °C 1021.2 hPa ESE 3.7 km/h 3.7 km/h 30% 0 mm FEW
16:41 13.7 °C -3.2 °C 1021.2 hPa SSE 5.6 km/h 5.6 km/h 31% 0 mm FEW
16:46 13.6 °C -3.7 °C 1021.2 hPa SSE 5.6 km/h 5.6 km/h 30% 0 mm FEW
16:52 13.4 °C -2.9 °C 1021.2 hPa SSW 5.6 km/h   32% 0 mm FEW
16:57 13.3 °C -3.1 °C 1021.2 hPa SW 1.9 km/h 1.9 km/h 32% 0 mm FEW
17:02 13.2 °C -3.2 °C 1021.2 hPa East 1.9 km/h   32% 0 mm FEW
17:07 12.9 °C -3 °C 1021.2 hPa NNE 1.9 km/h   33% 0 mm FEW
17:12 12.8 °C -2.7 °C 1021.2 hPa ENE 5.6 km/h   34% 0 mm FEW
17:18 12.7 °C -2.8 °C 1021.2 hPa SE 5.6 km/h   34% 0 mm FEW
17:23 12.6 °C -1.8 °C 1021.6 hPa ESE 5.6 km/h 5.6 km/h 37% 0 mm FEW
17:33 12.2 °C -2.8 °C 1021.6 hPa SE 7.4 km/h   35% 0 mm FEW
17:38 12.1 °C -2.9 °C 1021.6 hPa SE 7.4 km/h   35% 0 mm FEW
17:43 12 °C -1.9 °C 1021.6 hPa West 1.9 km/h   38% 0 mm FEW
17:48 11.7 °C -2.2 °C 1021.6 hPa WNW 1.9 km/h   38% 0 mm FEW
17:53 11.5 °C -1.7 °C 1021.6 hPa WNW 1.9 km/h   40% 0 mm FEW
17:58 11.3 °C -2.6 °C 1021.6 hPa WNW 1.9 km/h   38% 0 mm FEW
18:03 11.1 °C -2.1 °C 1021.6 hPa WNW 1.9 km/h   40% 0 mm FEW
18:08 10.9 °C -2.2 °C 1021.6 hPa WNW 1.9 km/h   40% 0 mm FEW
18:13 10.9 °C -2.5 °C 1021.9 hPa Calm     39% 0 mm FEW
18:18 10.8 °C -2.3 °C 1021.6 hPa Calm     40% 0 mm FEW
18:23 10.7 °C -1.7 °C 1021.6 hPa Calm     42% 0 mm FEW
18:29 10.5 °C -1.9 °C 1021.9 hPa Calm     42% 0 mm FEW
18:34 10.3 °C -2.1 °C 1021.9 hPa Calm     42% 0 mm FEW
18:39 10.1 °C -1.9 °C 1021.9 hPa WNW 1.9 km/h   43% 0 mm FEW
18:44 9.9 °C -1.8 °C 1021.9 hPa WNW 1.9 km/h   44% 0 mm FEW
18:49 9.8 °C -1.6 °C 1021.9 hPa Calm     45% 0 mm FEW
18:54 9.7 °C -1.7 °C 1021.9 hPa Calm     45% 0 mm FEW
18:59 9.5 °C -1.6 °C 1021.9 hPa Calm     46% 0 mm FEW
19:04 9.4 °C -1.7 °C 1021.9 hPa Calm     46% 0 mm FEW
19:09 9.3 °C -1.4 °C 1021.9 hPa Calm     47% 0 mm FEW
19:14 9.1 °C -1.3 °C 1021.9 hPa Calm     48% 0 mm FEW
19:19 9 °C -1.4 °C 1021.9 hPa Calm     48% 0 mm FEW
19:24 8.9 °C -1.3 °C 1021.9 hPa Calm     49% 0 mm FEW
19:30 8.8 °C -1.3 °C 1021.9 hPa Calm     49% 0 mm FEW
19:35 8.7 °C -1.7 °C 1022.2 hPa Calm     48% 0 mm FEW
19:40 8.7 °C -1.7 °C 1022.2 hPa Calm     48% 0 mm FEW
19:45 8.7 °C -1.7 °C 1022.2 hPa Calm     48% 0 mm FEW
19:50 8.7 °C -1.7 °C 1022.2 hPa Calm     48% 0 mm FEW
19:55 8.6 °C -1.3 °C 1022.2 hPa Calm     50% 0 mm FEW
20:05 8 °C -0.5 °C 1022.2 hPa Calm     55% 0 mm FEW
20:10 7.7 °C -0.5 °C 1022.2 hPa Calm     56% 0 mm FEW
20:15 7.7 °C -1.1 °C 1022.2 hPa Calm     54% 0 mm FEW
20:20 7.7 °C -1.3 °C 1022.2 hPa Calm     53% 0 mm FEW
20:25 7.7 °C -1.1 °C 1022.2 hPa Calm     54% 0 mm FEW
20:30 7.5 °C -1.2 °C 1022.2 hPa Calm     54% 0 mm FEW
20:36 7.3 °C -1.6 °C 1022.2 hPa Calm     53% 0 mm FEW
20:41 7.4 °C -1.6 °C 1022.2 hPa Calm     53% 0 mm FEW
20:46 7.6 °C -1.4 °C 1022.6 hPa Calm     53% 0 mm FEW
20:51 7.6 °C -1.2 °C 1022.6 hPa Calm     54% 0 mm FEW
20:56 7.4 °C -1 °C 1022.6 hPa Calm     55% 0 mm FEW
21:01 7.3 °C -0.9 °C 1022.6 hPa Calm     56% 0 mm FEW
21:06 7.1 °C -0.9 °C 1022.6 hPa Calm     57% 0 mm CLR
21:11 6.9 °C -1.1 °C 1022.6 hPa Calm     57% 0 mm CLR
21:16 6.8 °C -1.3 °C 1022.6 hPa Calm     56% 0 mm CLR
21:21 6.9 °C -1.3 °C 1022.6 hPa Calm     56% 0 mm CLR
21:26 6.9 °C -1.5 °C 1022.6 hPa Calm     55% 0 mm CLR
21:31 6.8 °C -1.3 °C 1022.6 hPa Calm     56% 0 mm CLR
21:36 6.7 °C -1.2 °C 1022.6 hPa Calm     57% 0 mm CLR
21:42 6.6 °C -1.1 °C 1022.9 hPa Calm     58% 0 mm CLR
21:47 6.5 °C -1.2 °C 1022.9 hPa Calm     58% 0 mm CLR
21:52 6.4 °C -1 °C 1022.9 hPa Calm     59% 0 mm CLR
21:57 6.4 °C -1.3 °C 1022.9 hPa Calm     58% 0 mm CLR
22:02 6.3 °C -1.1 °C 1022.9 hPa Calm     59% 0 mm CLR
22:03 6.3 °C -1.1 °C 1022.9 hPa Calm     59% 0 mm CLR
22:09 6.3 °C -1.1 °C 1022.9 hPa Calm     59% 0 mm CLR
22:14 6.3 °C -1.1 °C 1022.9 hPa Calm     59% 0 mm CLR
22:19 6.3 °C -1.1 °C 1022.9 hPa Calm     59% 0 mm CLR
22:24 6.3 °C -0.9 °C 1022.9 hPa Calm     60% 0 mm CLR
22:31 6.2 °C -1.2 °C 1022.9 hPa Calm     59% 0 mm CLR
22:37 6.2 °C -1.1 °C 1022.9 hPa Calm     60% 0 mm CLR
22:42 6.1 °C -0.7 °C 1022.6 hPa Calm     62% 0 mm CLR
22:47 5.8 °C -1.1 °C 1022.9 hPa Calm     61% 0 mm CLR
22:52 5.7 °C -1.2 °C 1022.6 hPa Calm     61% 0 mm CLR
22:57 5.7 °C -0.8 °C 1022.6 hPa Calm     63% 0 mm CLR
23:02 5.6 °C -0.5 °C 1022.6 hPa Calm     65% 0 mm CLR
23:07 5.4 °C -0.4 °C 1022.6 hPa Calm     66% 0 mm CLR
23:12 5.4 °C -1.1 °C 1022.6 hPa Calm     63% 0 mm CLR
23:17 5.4 °C -1.3 °C 1022.6 hPa Calm     62% 0 mm CLR
23:22 5.6 °C -1.1 °C 1022.2 hPa NNE 1.9 km/h   62% 0 mm CLR
23:27 5.7 °C -1.3 °C 1022.2 hPa NNE 1.9 km/h   61% 0 mm CLR
23:32 5.6 °C -0.9 °C 1022.2 hPa NNE 1.9 km/h   63% 0 mm CLR
23:37 5.6 °C -0.7 °C 1022.2 hPa Calm     64% 0 mm CLR
23:42 5.4 °C -0.8 °C 1022.2 hPa Calm     64% 0 mm CLR
23:47 5.3 °C -1 °C 1022.2 hPa Calm     64% 0 mm CLR
23:53 5.2 °C -1.1 °C 1022.2 hPa Calm     64% 0 mm CLR
23:58 4.9 °C -0.9 °C 1022.2 hPa Calm     66% 0 mm CLR
Piedmont Bend
Compliments of Weather Underground - 4 mb